Terminal Aerodrome Forecast
Issued by NWS Louisville, KY

Home | Current Version | Previous Version | Text Only | Print | Product List | Glossary On
Versions: 1 2 3 4 5 6 7 8 9 10 11 12 13 14 15 16
000
FTUS43 KLMK 261749
TAFSDF
TAF
KSDF 261749Z 2618/2724 20012KT P6SM BKN025
     FM261840 20012KT 5SM -SHRA VCTS BKN030CB BKN060
      TEMPO 2619/2621 VRB15G30KT 1SM TSRA BKN015CB
     FM262200 18005KT 6SM HZ SCT050 BKN100
     FM271600 19010KT P6SM SCT050=

USA.gov is the U.S. government's official web portal to all federal, state and local government web resources and services.